• Join FlightAware (Why Join?)
  • Login
  • US Flag 
03:01PM EDT


 

Airport Tracker/Info


-or-


 

Live Flight TrackerFlight Track Log ✈ ACA295 ✈ 15-Feb-2014 ✈ CYWG - CYVR

Flight Track Log - Related Links

Times and Time Zones

All times are in EST time to prevent confusion due to time zone crossing. See the ACA295 flight status page for this flight to view local times or setup timezone preferences in your user account.

Time Position Orientation Groundspeed Altitude Reporting Facility
EST Latitude Longitude Course Direction KTS MPH feet Rate Location/Type
07:38AM 49.9167 -97.2333 291° West 150 173 1,600  Level Winnipeg Center
07:39AM 49.9500 -97.2333 360° North 180 207 3,000 1,860 Climbing Winnipeg Center
07:40AM 50.0167 -97.2333 360° North 210 242 5,400 2,700 Climbing Winnipeg Center
07:41AM 49.9852 -97.8613 276° West  Level FlightAware Approximate
07:41AM 50.0167 -97.3333 270° West 250 288 8,500  Level Winnipeg Center
07:42AM 49.9959 -98.0212 276° West  Level FlightAware Approximate
07:42AM 50.0333 -97.4333 285° West 260 299 10,900  Level Winnipeg Center
07:43AM 50.0151 -98.1773 291° West  Level FlightAware Approximate
07:43AM 50.0333 -97.5667 270° West 290 334 13,800  Level Winnipeg Center
07:44AM 50.0500 -97.7000 281° West 290 334 16,200 2,100 Climbing Winnipeg Center
07:45AM 50.0500 -97.8333 270° West 320 368 18,100 1,920 Climbing Winnipeg Center
07:46AM 50.0667 -97.9500 283° West 330 380 20,100 2,100 Climbing Winnipeg Center
07:47AM 50.0667 -98.1167 270° West 340 391 22,300 2,100 Climbing Winnipeg Center
07:48AM 50.0667 -98.2667 270° West 340 391 24,300 1,560 Climbing Winnipeg Center
07:49AM 50.0833 -98.4333 279° West 350 403 25,500 1,200 Climbing Winnipeg Center
07:50AM 50.0833 -98.5833 270° West 360 414 26,800 1,200 Climbing Winnipeg Center
07:51AM 50.1000 -98.7333 280° West 370 426 28,000 1,080 Climbing Winnipeg Center
07:52AM 50.1167 -98.9000 279° West 380 437 29,000 1,200 Climbing Winnipeg Center
07:53AM 50.1167 -99.0500 270° West 390 449 30,400 1,440 Climbing Winnipeg Center
07:54AM 50.1167 -99.2333 270° West 380 437 31,900 1,500 Climbing Winnipeg Center
07:55AM 50.1167 -99.4000 270° West 370 426 33,400 1,200 Climbing Winnipeg Center
07:56AM 50.1333 -99.5500 280° West 370 426 34,300 840 Climbing Winnipeg Center
07:57AM 50.1500 -99.7000 280° West 370 426 35,100 660 Climbing Winnipeg Center
07:58AM 50.1500 -99.8667 270° West 370 426 35,700 540 Climbing Winnipeg Center
07:59AM 50.1500 -100.0500 270° West 370 426 36,200 600 Climbing Winnipeg Center
08:00AM 50.1667 -100.2000 280° West 370 426 37,000 660 Climbing Winnipeg Center
08:01AM 50.1833 -100.3333 281° West 370 426 37,600 480 Climbing Winnipeg Center
08:02AM 50.2000 -100.5167 278° West 360 414 38,000 180 Climbing Winnipeg Center
08:03AM 50.2167 -100.6833 279° West 370 426 38,000  Level Winnipeg Center
08:04AM 50.2333 -100.8333 280° West 370 426 38,000  Level Winnipeg Center
08:05AM 50.2500 -101.0000 279° West 370 426 38,000  Level Winnipeg Center
08:06AM 50.2500 -101.1500 270° West 370 426 38,000  Level Winnipeg Center
08:07AM 50.2667 -101.3167 279° West 370 426 38,000  Level Winnipeg Center
08:08AM 50.2833 -101.4667 280° West 370 426 38,000  Level Winnipeg Center
08:09AM 50.2833 -101.6333 270° West 370 426 38,000  Level Winnipeg Center
08:10AM 50.3000 -101.8167 278° West 380 437 38,000  Level Winnipeg Center
08:11AM 50.3000 -101.9667 270° West 380 437 38,000  Level Winnipeg Center
08:12AM 50.3167 -102.1333 279° West 380 437 38,000  Level Winnipeg Center
08:13AM 50.3333 -102.2833 280° West 380 437 38,000  Level Winnipeg Center
08:14AM 50.3333 -102.4667 270° West 380 437 38,000  Level Winnipeg Center
08:15AM 50.3667 -102.6333 287° West 380 437 38,000  Level Winnipeg Center
08:16AM 50.3667 -102.7667 270° West 380 437 38,000  Level Winnipeg Center
08:17AM 50.4000 -102.9500 286° West 380 437 38,000  Level Winnipeg Center
08:18AM 50.4167 -103.1167 279° West 380 437 38,000  Level Winnipeg Center
08:19AM 50.4333 -103.2667 280° West 380 437 38,000  Level Winnipeg Center
08:20AM 50.4500 -103.4333 279° West 380 437 38,000  Level Winnipeg Center
08:21AM 50.4500 -103.6167 270° West 380 437 38,000  Level Winnipeg Center
08:22AM 50.4833 -103.7833 288° West 380 437 38,000  Level Winnipeg Center
08:23AM 50.5000 -103.9500 279° West 380 437 38,000  Level Winnipeg Center
08:24AM 50.5167 -104.1000 280° West 390 449 38,000  Level Winnipeg Center
08:25AM 50.5333 -104.2667 279° West 390 449 38,000  Level Winnipeg Center
08:26AM 50.5500 -104.4500 278° West 390 449 38,000  Level Winnipeg Center
08:27AM 50.5667 -104.5833 281° West 380 437 38,000  Level Winnipeg Center
08:28AM 50.5833 -104.7833 278° West 380 437 38,000  Level Winnipeg Center
08:29AM 50.5833 -104.9333 270° West 390 449 38,000  Level Winnipeg Center
08:30AM 50.6167 -105.1000 288° West 390 449 38,000  Level Winnipeg Center
08:31AM 50.6333 -105.2667 279° West 390 449 38,000  Level Winnipeg Center
08:32AM 50.6500 -105.4500 278° West 390 449 38,000  Level Winnipeg Center
08:33AM 50.6667 -105.6167 279° West 390 449 38,000  Level Winnipeg Center
08:34AM 50.6833 -105.7667 280° West 390 449 38,000  Level Winnipeg Center
08:35AM 50.7000 -105.9333 279° West 390 449 38,000  Level Winnipeg Center
08:36AM 50.7000 -106.1000 270° West 380 437 38,000  Level Winnipeg Center
08:37AM 50.7167 -106.2833 278° West 380 437 38,000  Level Winnipeg Center
08:38AM 50.7333 -106.4500 279° West 390 449 38,000  Level Winnipeg Center
08:39AM 50.7500 -106.6167 279° West 380 437 38,000  Level Winnipeg Center
08:40AM 50.7667 -106.7833 279° West 380 437 38,000  Level Winnipeg Center
08:41AM 50.7667 -106.9667 270° West 380 437 38,000  Level Winnipeg Center
08:42AM 50.7833 -107.1000 281° West 370 426 38,000  Level Winnipeg Center
08:43AM 50.8167 -107.2667 288° West 380 437 38,000  Level Winnipeg Center
08:44AM 50.8167 -107.4500 270° West 380 437 38,000  Level Winnipeg Center
08:45AM 50.8333 -107.5833 281° West 370 426 38,000  Level Winnipeg Center
08:46AM 50.8500 -107.7833 278° West 370 426 38,000  Level Winnipeg Center
08:47AM 50.8500 -107.9333 270° West 370 426 38,000  Level Winnipeg Center
08:48AM 50.8667 -108.1000 279° West 370 426 38,000  Level Winnipeg Center
08:49AM 50.8667 -108.2667 270° West 370 426 38,000  Level Winnipeg Center
08:50AM 50.8833 -108.4000 281° West 370 426 38,000  Level Winnipeg Center
08:51AM 50.8833 -108.5667 270° West 370 426 38,000  Level Winnipeg Center
08:52AM 50.9000 -108.7333 279° West 370 426 38,000  Level Winnipeg Center
08:53AM 50.9167 -108.9000 279° West 370 426 38,000  Level Winnipeg Center
08:54AM 50.9167 -109.0500 270° West 370 426 38,000  Level Winnipeg Center
08:55AM 50.9333 -109.2167 279° West 370 426 38,000  Level Winnipeg Center
08:56AM 50.9333 -109.3833 270° West 380 437 38,000  Level Winnipeg Center
08:57AM 50.9500 -109.5667 278° West 380 437 38,000  Level Winnipeg Center
08:58AM 50.9667 -109.7667 278° West 370 426 38,000  Level Edmonton Center
08:59AM 50.9667 -109.9167 270° West 370 426 38,000  Level Edmonton Center
09:00AM 50.9667 -110.0833 270° West 370 426 38,000  Level Edmonton Center
09:01AM 50.9833 -110.2500 279° West 370 426 38,000  Level Edmonton Center
09:02AM 50.9833 -110.4000 270° West 360 414 38,000  Level Edmonton Center
09:03AM 50.9833 -110.5667 270° West 370 426 38,000  Level Edmonton Center
09:04AM 50.9833 -110.7500 270° West 370 426 38,000  Level Edmonton Center
09:05AM 51.0000 -110.9167 279° West 370 426 38,000  Level Edmonton Center
09:06AM 50.9833 -111.0833 261° West 370 426 38,000  Level Edmonton Center
09:07AM 51.0000 -111.2333 280° West 370 426 38,000  Level Edmonton Center
09:08AM 51.0000 -111.4000 270° West 370 426 38,000  Level Edmonton Center
09:09AM 50.9833 -111.5667 261° West 370 426 38,000  Level Edmonton Center
09:10AM 51.0000 -111.7333 279° West 370 426 38,000  Level Edmonton Center
09:11AM 51.0000 -111.8833 270° West 360 414 38,000  Level Edmonton Center
09:12AM 51.0000 -112.0500 270° West 370 426 38,000  Level Edmonton Center
09:13AM 51.0000 -112.2167 270° West 370 426 38,000  Level Edmonton Center
09:14AM 51.0000 -112.3667 270° West 370 426 38,000  Level Edmonton Center
09:15AM 51.0167 -112.5667 278° West 370 426 38,000  Level Edmonton Center
09:16AM 51.0000 -112.7000 259° West 360 414 38,000  Level Edmonton Center
09:17AM 51.0000 -112.8833 270° West 360 414 38,000  Level Edmonton Center
09:18AM 51.0167 -113.0167 281° West 360 414 38,000  Level Edmonton Center
09:19AM 51.0000 -113.1833 261° West 360 414 38,000  Level Edmonton Center
09:20AM 51.0000 -113.3667 270° West 360 414 38,000  Level Edmonton Center
09:21AM 51.0167 -113.5000 281° West 360 414 38,000  Level Edmonton Center
09:22AM 51.0000 -113.6833 262° West 360 414 38,000  Level Edmonton Center
09:23AM 51.0000 -113.8500 270° West 370 426 38,000  Level Edmonton Center
09:24AM 51.0000 -113.9833 270° West 370 426 38,000  Level Edmonton Center
09:25AM 50.9833 -114.1833 263° West 360 414 38,000  Level Edmonton Center
09:26AM 51.0000 -114.3333 280° West 360 414 38,000  Level Edmonton Center
09:28AM 51.0000 -114.5167 270° West 360 414 38,000  Level Vancouver Center
09:29AM 51.0000 -114.6833 270° West 360 414 38,000  Level Vancouver Center
09:30AM 51.0000 -114.8500 270° West 350 403 38,000  Level Vancouver Center
09:31AM 51.0000 -115.0000 270° West 350 403 38,000  Level Vancouver Center
09:32AM 50.9833 -115.1333 259° West 350 403 38,000  Level Vancouver Center
09:33AM 50.9833 -115.3000 270° West 350 403 38,000  Level Vancouver Center
09:34AM 50.9833 -115.4667 270° West 350 403 38,000  Level Vancouver Center
09:35AM 50.9500 -115.6000 248° West 360 414 38,000  Level Vancouver Center
09:36AM 50.9167 -115.7667 252° West 370 426 38,000  Level Vancouver Center
09:37AM 50.8833 -115.9333 252° West 370 426 38,000  Level Vancouver Center
09:38AM 50.8667 -116.0833 260° West 370 426 38,000  Level Vancouver Center
09:39AM 50.8333 -116.2333 251° West 370 426 38,000  Level Vancouver Center
09:40AM 50.8000 -116.4000 252° West 370 426 38,000  Level Vancouver Center
09:41AM 50.7667 -116.5500 251° West 370 426 38,000  Level Vancouver Center
09:42AM 50.7333 -116.7000 251° West 380 437 38,000  Level Vancouver Center
09:43AM 50.7000 -116.8667 253° West 380 437 38,000  Level Vancouver Center
09:44AM 50.6833 -117.0167 260° West 380 437 38,000  Level Vancouver Center
09:45AM 50.6333 -117.1833 245° Southwest 380 437 38,000  Level Vancouver Center
09:46AM 50.6167 -117.3500 261° West 380 437 38,000  Level Vancouver Center
09:47AM 50.5667 -117.4833 239° Southwest 370 426 38,000  Level Vancouver Center
09:48AM 50.5500 -117.6500 261° West 370 426 38,000  Level Vancouver Center
09:49AM 50.5167 -117.7833 249° West 370 426 38,000  Level Vancouver Center
09:50AM 50.4833 -117.9500 253° West 370 426 38,000  Level Vancouver Center
09:51AM 50.4500 -118.0833 249° West 360 414 38,000  Level Vancouver Center
09:52AM 50.4000 -118.2333 242° Southwest 360 414 38,000  Level Vancouver Center
09:53AM 50.3833 -118.3833 260° West 360 414 38,000  Level Vancouver Center
09:54AM 50.3500 -118.5333 251° West 360 414 38,000  Level Vancouver Center
09:55AM 50.3167 -118.6667 249° West 350 403 38,000  Level Vancouver Center
09:56AM 50.2833 -118.8333 253° West 350 403 38,000  Level Vancouver Center
09:57AM 50.2500 -118.9667 249° West 350 403 38,000  Level Vancouver Center
09:58AM 50.2167 -119.1333 253° West 350 403 38,000  Level Vancouver Center
09:59AM 50.1833 -119.2667 249° West 360 414 38,000  Level Vancouver Center
10:00AM 50.1500 -119.4167 251° West 360 414 38,000  Level Vancouver Center
10:01AM 50.1333 -119.5500 259° West 340 391 38,000  Level Vancouver Center
10:02AM 50.0833 -119.6833 240° Southwest 350 403 38,000 -60 Level Vancouver Center
10:03AM 50.0500 -119.8167 249° West 350 403 37,900 -600 Descending Vancouver Center
10:04AM 50.0167 -119.9833 253° West 350 403 36,800 -1,080 Descending Vancouver Center
10:05AM 49.9833 -120.1167 249° West 330 380 35,800 -1,140 Descending Vancouver Center
10:06AM 49.9500 -120.2500 249° West 290 334 34,600 -900 Descending Vancouver Center
10:07AM 49.9333 -120.3500 256° West 280 322 34,000 -300 Descending Vancouver Center
10:08AM 49.9000 -120.4500 243° Southwest 300 345 34,000 -300 Level Vancouver Center
10:09AM 49.8667 -120.5833 249° West 310 357 33,500 -780 Descending Vancouver Center
10:10AM 49.8333 -120.7000 246° West 300 345 32,500 -1,020 Descending Vancouver Center
10:11AM 49.8000 -120.8500 251° West 320 368 31,500 -1,020 Descending Vancouver Center
10:12AM 49.7667 -120.9500 243° Southwest 330 380 30,500 -1,200 Descending Vancouver Center
10:13AM 49.7167 -121.1167 245° Southwest 340 391 29,200 -1,320 Descending Vancouver Center
10:14AM 49.7000 -121.2500 259° West 350 403 27,900 -1,320 Descending Vancouver Center
10:15AM 49.6667 -121.3667 246° West 350 403 26,600 -1,380 Descending Vancouver Center
10:16AM 49.6167 -121.5333 245° Southwest 350 403 25,200 -1,320 Descending Vancouver Center
10:17AM 49.5833 -121.6667 249° West 340 391 24,000 -1,320 Descending Vancouver Center
10:18AM 49.5333 -121.8000 240° Southwest 340 391 22,600 -1,320 Descending Vancouver Center
10:19AM 49.5000 -121.9167 246° West 330 380 21,400 -1,200 Descending Vancouver Center
10:20AM 49.4833 -122.0500 259° West 330 380 20,200 -1,260 Descending Vancouver Center
10:21AM 49.4333 -122.1833 240° Southwest 320 368 18,900 -1,140 Descending Vancouver Center
10:22AM 49.4000 -122.2833 243° Southwest 300 345 18,000 -1,200 Descending Vancouver Center
10:23AM 49.3667 -122.3833 243° Southwest 280 322 16,600 -1,320 Descending Vancouver Center
10:24AM 49.3333 -122.5000 246° West 280 322 15,400 -1,080 Descending Vancouver Center
10:25AM 49.2833 -122.6000 233° Southwest 270 311 14,500 -900 Descending Vancouver Center
10:26AM 49.2500 -122.7000 243° Southwest 260 299 13,600 -900 Descending Vancouver Center
10:27AM 49.2333 -122.8000 256° West 260 299 12,800 -1,500 Descending Vancouver Center
10:28AM 49.2167 -122.9000 256° West 260 299 10,600 -2,040 Descending Vancouver Center
10:29AM 49.2333 -123.0000 284° West 280 322 8,800 -2,160 Descending Vancouver Center
10:30AM 49.2500 -123.1333 281° West 280 322 6,300 -1,800 Descending Vancouver Center
10:31AM 49.2667 -123.2667 281° West 290 334 5,200 -1,380 Descending Vancouver Center
10:32AM 49.2833 -123.3833 282° West 280 322 3,600 -1,140 Descending Vancouver Center
10:33AM 49.2667 -123.4333 243° Southwest 220 253 3,000 -780 Descending Vancouver Center
10:34AM 49.2167 -123.4167 168° South 190 219 2,100 -600 Descending Vancouver Center
10:35AM 49.2000 -123.3667 117° Southeast 180 207 1,900 -420 Descending Vancouver Center
10:36AM 49.2000 -123.2833 90° East 160 184 1,300 -720 Descending Vancouver Center
10:37AM 49.1833 -123.2333 117° Southeast 140 161 500 -840 Descending Vancouver Center